Language: 


Des rapports , des résumés tant et plus, au choix de chacun....


Données Historiques de Météogheer
Journalier Rapport pour Avril 18, 2017 Unitée:  Métrique    Impériale   Les deux
Suivant Jour »
Journalier Hebdomadaire Mensuel Annuel Sur mesure
  Max: Min: Moyenne:
Température: 14.0 °C 0.0 °C 7.2 °C
Point de rosée: 7.0 °C -2.7 °C 2.1 °C
Humidité: 96% 0% 71%
Vent: 31.4km/h 0.0km/h 7.4km/h
Rafales: 31.4km/h - -
Vent- - WSW
Pression: 1031.0 hPa 0.0 hPa -
Pluie: 8.6 mm    
Historical Graphs
 
 
Données tabulaires pour Avril 18, 2017
Heure Température Point de rosée Pression Vent Vent Rafales Humidité Pluie Taux (Horaire) Conditions
00:02 4.1 °C -0.9 °C 1023.9 hPa Calm   2.1 km/h 70% 0.0 mm
00:07 4.0 °C -1.2 °C 1023.9 hPa Calm   2.1 km/h 69% 0.0 mm
00:12 3.7 °C -1.4 °C 1023.9 hPa Calm   4.0 km/h 69% 0.0 mm
00:17 3.4 °C -1.6 °C 1023.9 hPa Calm   4.0 km/h 70% 0.0 mm
00:22 3.3 °C -1.7 °C 1023.9 hPa Calm     70% 0.0 mm
00:27 3.3 °C -1.4 °C 1023.9 hPa Calm   2.6 km/h 71% 0.0 mm
00:32 3.2 °C -1.6 °C 1023.9 hPa Calm   2.6 km/h 71% 0.0 mm
00:37 3.1 °C -1.7 °C 1023.9 hPa Calm     71% 0.0 mm
00:42 3.0 °C -1.6 °C 1023.9 hPa Calm     72% 0.0 mm
00:47 3.0 °C -1.4 °C 1023.9 hPa West 5.0 km/h 5.0 km/h 73% 0.0 mm
00:52 3.0 °C -1.4 °C 1024.9 hPa Calm   5.0 km/h 73% 0.0 mm
00:57 2.9 °C -1.3 °C 1024.9 hPa West 4.7 km/h 6.4 km/h 74% 0.0 mm
01:02 3.0 °C -1.2 °C 1024.9 hPa WNW 5.5 km/h 7.9 km/h 74% 0.0 mm
01:07 3.0 °C -1.0 °C 1023.9 hPa Calm   7.9 km/h 75% 0.0 mm
01:12 3.1 °C -0.9 °C 1023.9 hPa Calm   6.1 km/h 75% 0.0 mm
01:17 3.0 °C -1.0 °C 1023.9 hPa Calm   6.1 km/h 75% 0.0 mm
01:22 2.9 °C -1.1 °C 1024.9 hPa Calm     75% 0.0 mm
01:27 2.8 °C -1.2 °C 1024.9 hPa Calm     75% 0.0 mm
01:32 2.6 °C -1.4 °C 1024.9 hPa Calm     75% 0.0 mm
01:37 2.4 °C -1.6 °C 1024.9 hPa Calm     75% 0.0 mm
01:42 2.2 °C -1.8 °C 1024.9 hPa Calm   3.2 km/h 75% 0.0 mm
01:47 2.1 °C -1.9 °C 1024.9 hPa Calm   3.2 km/h 75% 0.0 mm
01:52 2.1 °C -1.7 °C 1023.9 hPa West 6.4 km/h 6.9 km/h 76% 0.0 mm
01:57 2.0 °C -1.8 °C 1023.9 hPa Calm   6.9 km/h 76% 0.0 mm
02:02 1.9 °C -1.7 °C 1023.9 hPa Calm   6.4 km/h 77% 0.0 mm
02:07 1.8 °C -1.8 °C 1023.9 hPa Calm   6.4 km/h 77% 0.0 mm
02:12 1.6 °C -1.8 °C 1023.9 hPa Calm     78% 0.0 mm
02:17 1.6 °C -1.8 °C 1023.9 hPa Calm     78% 0.0 mm
02:22 1.5 °C -1.7 °C 1023.9 hPa Calm   6.4 km/h 79% 0.0 mm
02:27 1.6 °C -1.7 °C 1023.9 hPa Calm   6.4 km/h 79% 0.0 mm
02:32 1.4 °C -1.8 °C 1023.9 hPa Calm   2.1 km/h 79% 0.0 mm
02:37 1.1 °C -2.3 °C 1023.9 hPa Calm     78% 0.0 mm
02:42 1.0 °C -2.4 °C 1023.9 hPa Calm     78% 0.0 mm
02:47 0.9 °C -2.3 °C 1023.9 hPa Calm     79% 0.0 mm
02:52 0.8 °C -2.3 °C 1023.9 hPa Calm     80% 0.0 mm
02:57 0.7 °C -2.3 °C 1023.9 hPa Calm   5.8 km/h 80% 0.0 mm
03:02 0.7 °C -2.3 °C 1023.9 hPa Calm   5.8 km/h 80% 0.0 mm
03:07 0.6 °C -2.4 °C 1023.9 hPa Calm   5.0 km/h 80% 0.0 mm
03:12 0.5 °C -2.6 °C 1023.9 hPa Calm   5.5 km/h 80% 0.0 mm
03:17 0.4 °C -2.7 °C 1023.9 hPa Calm   5.5 km/h 80% 0.0 mm
03:23 0.4 °C -2.5 °C 1023.9 hPa Calm     81% 0.0 mm
03:28 0.5 °C -2.2 °C 1023.9 hPa West 5.0 km/h 5.5 km/h 82% 0.0 mm
03:47 0.0 °C -2.2 °C 0.0 hPa Calm     0% 0.0 mm
03:52 1.6 °C -0.7 °C 1022.9 hPa Calm   3.5 km/h 85% 0.0 mm
03:57 2.0 °C -0.1 °C 1022.9 hPa WNW 8.7 km/h 8.7 km/h 86% 0.0 mm
04:02 2.4 °C 0.4 °C 1022.9 hPa NW 4.7 km/h 8.7 km/h 87% 0.0 mm
04:07 3.0 °C 1.2 °C 1022.9 hPa WNW 4.7 km/h 7.9 km/h 88% 0.0 mm
04:12 3.5 °C 1.8 °C 1022.9 hPa WNW 4.7 km/h 9.0 km/h 89% 0.0 mm
04:17 3.9 °C 2.3 °C 1022.9 hPa WNW 11.1 km/h 12.2 km/h 89% 0.0 mm
04:22 4.3 °C 2.7 °C 1022.9 hPa WNW 12.2 km/h 15.8 km/h 89% 0.0 mm
04:27 4.6 °C 2.8 °C 1022.9 hPa NNW 2.6 km/h 15.8 km/h 88% 0.0 mm
04:32 5.0 °C 2.8 °C 1022.9 hPa WNW 9.7 km/h 10.1 km/h 86% 0.0 mm
04:37 5.5 °C 3.0 °C 1023.9 hPa North 10.5 km/h 10.5 km/h 84% 0.0 mm
04:42 5.7 °C 3.2 °C 1023.9 hPa North 11.9 km/h 16.3 km/h 84% 0.0 mm
04:47 5.5 °C 3.0 °C 1023.9 hPa WNW 8.7 km/h 20.9 km/h 84% 0.0 mm
04:53 5.1 °C 2.6 °C 1023.9 hPa North 9.7 km/h 20.9 km/h 84% 0.0 mm
04:58 5.0 °C 2.5 °C 1023.9 hPa NNW 2.6 km/h 15.8 km/h 84% 2.0 mm
05:03 4.9 °C 2.6 °C 1023.9 hPa Calm   10.1 km/h 85% 3.3 mm
05:08 4.8 °C 2.5 °C 1022.9 hPa NNW 1.8 km/h 6.4 km/h 85% 3.3 mm
05:13 4.7 °C 2.4 °C 1022.9 hPa Calm   6.4 km/h 85% 3.3 mm
05:18 4.7 °C 2.6 °C 1022.9 hPa NNW 3.2 km/h 5.5 km/h 86% 3.3 mm
05:23 4.6 °C 2.4 °C 1023.9 hPa Calm   4.0 km/h 86% 3.3 mm
05:28 4.4 °C 2.3 °C 1023.9 hPa Calm   3.2 km/h 86% 3.3 mm
05:33 4.3 °C 2.2 °C 1023.9 hPa Calm     86% 3.3 mm
05:34 4.3 °C 2.2 °C 1023.9 hPa Calm     86% 3.3 mm
05:39 4.0 °C 1.7 °C 1023.9 hPa Calm     85% 3.3 mm
05:44 3.7 °C 1.4 °C 1023.9 hPa Calm     85% 3.3 mm
05:49 3.6 °C 1.3 °C 1023.9 hPa Calm     85% 3.3 mm
05:54 3.3 °C 1.0 °C 1023.9 hPa Calm     85% 3.3 mm
05:59 3.1 °C 1.0 °C 1023.9 hPa Calm     86% 0.0 mm
06:04 3.0 °C 0.9 °C 1023.9 hPa Calm   3.2 km/h 86% 0.0 mm
06:14 3.2 °C 1.4 °C 1022.9 hPa West 1.4 km/h 3.2 km/h 88% 0.0 mm
06:24 3.0 °C 1.2 °C 1023.9 hPa Calm     88% 0.0 mm
06:29 2.9 °C 1.1 °C 1023.9 hPa Calm   4.0 km/h 88% 0.0 mm
06:35 3.0 °C 1.2 °C 1023.9 hPa Calm   4.0 km/h 88% 0.0 mm
06:40 3.0 °C 1.4 °C 1023.9 hPa Calm     89% 0.0 mm
06:45 2.9 °C 1.3 °C 1023.9 hPa Calm     89% 0.0 mm
06:50 2.8 °C 1.3 °C 1023.9 hPa Calm     90% 0.0 mm
06:55 3.0 °C 1.5 °C 1023.9 hPa NNE 5.0 km/h 6.9 km/h 90% 0.0 mm
07:00 3.1 °C 2.1 °C 1023.9 hPa Calm   8.7 km/h 93% 0.0 mm
07:05 3.2 °C 2.2 °C 1023.9 hPa NNE 6.9 km/h 10.5 km/h 93% 0.0 mm
07:10 3.5 °C 2.6 °C 1024.9 hPa Calm   10.5 km/h 94% 0.0 mm
07:15 3.6 °C 2.7 °C 1024.9 hPa North 5.8 km/h 7.9 km/h 94% 0.0 mm
07:20 3.6 °C 2.7 °C 1024.9 hPa Calm   6.4 km/h 94% 1.0 mm
07:25 3.7 °C 2.8 °C 1024.9 hPa Calm   6.4 km/h 94% 1.0 mm
07:30 3.7 °C 2.8 °C 1024.9 hPa Calm   5.8 km/h 94% 4.1 mm
07:35 3.7 °C 2.8 °C 1024.9 hPa Calm   4.0 km/h 94% 5.3 mm
07:40 3.7 °C 2.8 °C 1024.9 hPa Calm     94% 3.3 mm
07:45 3.8 °C 3.0 °C 1024.9 hPa Calm     94% 3.3 mm
07:50 3.8 °C 3.0 °C 1024.9 hPa Calm   2.1 km/h 94% 3.3 mm
07:55 3.9 °C 3.0 °C 1024.9 hPa Calm   2.1 km/h 94% 3.3 mm
08:00 3.9 °C 3.0 °C 1024.9 hPa Calm     95% 3.8 mm
08:05 4.0 °C 3.0 °C 1023.9 hPa North 1.4 km/h 4.7 km/h 94% 3.8 mm
08:10 4.1 °C 3.0 °C 1023.9 hPa NE 5.0 km/h 6.4 km/h 95% 3.8 mm
08:15 4.1 °C 3.0 °C 1023.9 hPa North 6.4 km/h 7.9 km/h 95% 4.6 mm
08:20 4.1 °C 3.0 °C 1024.9 hPa NNE 4.3 km/h 7.9 km/h 95% 4.1 mm
08:25 4.2 °C 4.0 °C 1024.9 hPa Calm   5.8 km/h 95% 4.1 mm
08:30 4.7 °C 4.0 °C 1024.9 hPa Calm   5.8 km/h 96% 2.8 mm
08:35 5.2 °C 5.0 °C 1024.9 hPa Calm     96% 1.8 mm
08:41 5.6 °C 6.0 °C 1024.9 hPa Calm   1.8 km/h 96% 1.8 mm
08:46 6.3 °C 6.0 °C 1024.9 hPa Calm   1.8 km/h 96% 1.8 mm
08:51 6.4 °C 6.0 °C 1024.9 hPa Calm     96% 1.8 mm
08:56 7.0 °C 6.0 °C 1024.9 hPa Calm     95% 1.8 mm
09:01 7.3 °C 6.0 °C 1024.9 hPa West 4.7 km/h 6.4 km/h 94% 1.5 mm
09:06 7.4 °C 6.0 °C 1024.9 hPa Calm   6.4 km/h 94% 1.5 mm
09:11 7.7 °C 7.0 °C 1024.9 hPa West 7.9 km/h 9.3 km/h 93% 1.5 mm
09:16 7.7 °C 6.0 °C 1024.9 hPa Calm   10.5 km/h 92% 0.5 mm
09:21 8.0 °C 7.0 °C 1024.9 hPa West 8.7 km/h 10.5 km/h 91% 0.5 mm
09:26 8.1 °C 7.0 °C 1024.9 hPa West 7.9 km/h 10.5 km/h 91% 0.5 mm
09:31 8.0 °C 7.0 °C 1024.9 hPa West 5.5 km/h 10.5 km/h 89% 0.0 mm
09:36 7.8 °C 6.0 °C 1024.9 hPa West 4.3 km/h 10.5 km/h 89% 0.0 mm
09:41 7.6 °C 6.0 °C 1024.9 hPa NNW 17.7 km/h 23.8 km/h 89% 0.0 mm
09:51 5.5 °C 3.0 °C 1026.0 hPa NNW 10.1 km/h 20.6 km/h 82% 0.0 mm
10:01 5.1 °C 3.0 °C 1026.0 hPa North 6.1 km/h 16.3 km/h 86% 0.0 mm
10:06 5.1 °C 3.0 °C 1026.0 hPa NNE 13.0 km/h 13.0 km/h 87% 0.0 mm
10:11 5.3 °C 4.0 °C 1026.0 hPa North 13.0 km/h 19.8 km/h 88% 1.3 mm
10:17 6.3 °C 5.0 °C 1026.0 hPa North 8.7 km/h 19.8 km/h 89% 1.3 mm
10:22 6.8 °C 5.0 °C 1026.0 hPa North 12.6 km/h 15.8 km/h 90% 1.3 mm
10:27 7.6 °C 6.0 °C 1026.0 hPa NNW 13.7 km/h 16.3 km/h 87% 1.3 mm
10:32 8.1 °C 6.0 °C 1026.0 hPa North 9.7 km/h 16.3 km/h 86% 1.3 mm
10:37 8.4 °C 6.0 °C 1026.0 hPa North 9.3 km/h 16.3 km/h 85% 1.3 mm
10:42 8.9 °C 6.0 °C 1026.0 hPa NW 15.4 km/h 17.7 km/h 81% 1.3 mm
10:47 8.6 °C 6.0 °C 1026.0 hPa NE 5.8 km/h 17.7 km/h 80% 1.3 mm
10:52 8.2 °C 5.0 °C 1026.0 hPa NNW 9.7 km/h 13.0 km/h 77% 1.3 mm
10:57 8.5 °C 5.0 °C 1026.0 hPa ENE 20.9 km/h 20.9 km/h 75% 1.3 mm
11:02 9.0 °C 5.0 °C 1026.0 hPa NNW 9.3 km/h 20.9 km/h 74% 1.3 mm
11:07 9.4 °C 5.0 °C 1026.0 hPa North 16.6 km/h 20.1 km/h 73% 1.3 mm
11:12 9.8 °C 5.0 °C 1026.0 hPa North 12.2 km/h 18.0 km/h 72% 0.0 mm
11:17 10.0 °C 5.0 °C 1026.0 hPa North 14.0 km/h 23.3 km/h 71% 0.0 mm
11:22 9.9 °C 5.0 °C 1026.0 hPa WNW 9.0 km/h 23.3 km/h 69% 0.0 mm
11:27 9.3 °C 4.0 °C 1026.0 hPa North 9.3 km/h 19.5 km/h 68% 0.0 mm
11:32 9.7 °C 5.0 °C 1026.0 hPa NNW 5.5 km/h 19.5 km/h 71% 0.0 mm
11:37 9.4 °C 4.0 °C 1027.0 hPa North 13.0 km/h 18.3 km/h 68% 0.0 mm
11:43 9.7 °C 4.0 °C 1027.0 hPa NE 16.6 km/h 24.5 km/h 66% 0.0 mm
11:48 10.2 °C 3.0 °C 1027.0 hPa NE 10.5 km/h 25.9 km/h 62% 0.0 mm
11:53 10.7 °C 4.0 °C 1027.0 hPa ENE 17.2 km/h 26.2 km/h 64% 0.0 mm
11:58 10.9 °C 4.0 °C 1027.0 hPa ENE 17.2 km/h 28.5 km/h 60% 0.0 mm
12:03 11.3 °C 4.0 °C 1027.0 hPa NE 13.0 km/h 28.5 km/h 62% 0.0 mm
12:08 10.3 °C 3.0 °C 1027.0 hPa NNE 16.6 km/h 27.7 km/h 58% 0.0 mm
12:13 9.6 °C 3.0 °C 1027.0 hPa NNE 16.9 km/h 23.8 km/h 60% 0.0 mm
12:18 9.3 °C 4.0 °C 1027.0 hPa NE 16.6 km/h 27.7 km/h 67% 0.0 mm
12:23 9.4 °C 3.0 °C 1027.0 hPa North 20.9 km/h 27.7 km/h 66% 0.0 mm
12:28 10.2 °C 3.0 °C 1027.0 hPa NNW 19.8 km/h 24.8 km/h 62% 0.0 mm
12:33 10.7 °C 4.0 °C 1027.0 hPa North 21.2 km/h 24.8 km/h 62% 0.0 mm
12:38 10.9 °C 4.0 °C 1027.0 hPa North 17.2 km/h 27.0 km/h 61% 0.0 mm
12:43 11.1 °C 4.0 °C 1027.0 hPa North 18.0 km/h 27.0 km/h 61% 0.0 mm
12:48 11.5 °C 4.0 °C 1027.0 hPa North 15.8 km/h 24.5 km/h 60% 0.0 mm
12:53 10.9 °C 4.0 °C 1027.0 hPa NE 18.3 km/h 23.8 km/h 60% 0.0 mm
12:58 10.0 °C 2.0 °C 1027.0 hPa NNE 17.7 km/h 26.7 km/h 58% 0.0 mm
13:03 10.3 °C 3.0 °C 1027.0 hPa North 21.2 km/h 27.7 km/h 59% 0.0 mm
13:08 10.3 °C 3.0 °C 1027.0 hPa ENE 20.1 km/h 27.7 km/h 59% 0.0 mm
13:13 10.4 °C 2.0 °C 1027.0 hPa NE 16.6 km/h 24.8 km/h 57% 0.0 mm
13:19 11.0 °C 3.0 °C 1027.0 hPa NE 11.9 km/h 22.7 km/h 57% 0.0 mm
13:24 11.5 °C 3.0 °C 1027.0 hPa North 24.5 km/h 24.5 km/h 57% 0.0 mm
13:29 11.8 °C 3.0 °C 1027.0 hPa NE 20.6 km/h 25.3 km/h 56% 0.0 mm
13:34 11.3 °C 3.0 °C 1027.0 hPa North 15.8 km/h 25.3 km/h 58% 0.0 mm
13:39 10.5 °C 3.0 °C 1026.0 hPa North 12.2 km/h 23.3 km/h 57% 0.0 mm
13:44 11.6 °C 4.0 °C 1026.0 hPa NE 11.9 km/h 23.3 km/h 59% 0.0 mm
13:49 12.1 °C 4.0 °C 1026.0 hPa North 16.9 km/h 20.9 km/h 56% 0.0 mm
13:54 12.5 °C 4.0 °C 1027.0 hPa North 31.4 km/h 31.4 km/h 54% 0.0 mm
13:59 11.2 °C 1.0 °C 1027.0 hPa ENE 16.6 km/h 31.4 km/h 50% 0.0 mm
14:04 11.6 °C 2.0 °C 1027.0 hPa North 10.5 km/h 24.8 km/h 50% 0.0 mm
14:09 12.1 °C 2.0 °C 1027.0 hPa North 7.2 km/h 24.8 km/h 50% 0.0 mm
14:14 12.7 °C 3.0 °C 1027.0 hPa NE 14.3 km/h 23.3 km/h 51% 0.0 mm
14:19 12.5 °C 3.0 °C 1027.0 hPa NE 14.8 km/h 24.5 km/h 49% 0.0 mm
14:24 12.8 °C 3.0 °C 1026.0 hPa NE 20.1 km/h 27.7 km/h 50% 0.0 mm
14:29 12.4 °C 2.0 °C 1026.0 hPa ENE 16.9 km/h 27.7 km/h 47% 0.0 mm
14:34 13.1 °C 3.0 °C 1026.0 hPa NNE 17.2 km/h 23.8 km/h 48% 0.0 mm
14:39 12.1 °C 1.0 °C 1026.0 hPa NE 22.7 km/h 28.5 km/h 47% 0.0 mm
14:44 12.1 °C 1.0 °C 1026.0 hPa North 17.2 km/h 28.5 km/h 47% 0.0 mm
14:49 11.5 °C 1.0 °C 1026.0 hPa NNE 9.7 km/h 20.6 km/h 47% 0.0 mm
14:54 12.0 °C 1.0 °C 1027.0 hPa North 22.4 km/h 22.4 km/h 47% 0.0 mm
14:59 11.7 °C 1.0 °C 1027.0 hPa North 15.4 km/h 25.6 km/h 47% 0.0 mm
15:04 12.5 °C 2.0 °C 1027.0 hPa North 13.0 km/h 25.6 km/h 47% 0.0 mm
15:09 12.5 °C 2.0 °C 1027.0 hPa NNW 9.7 km/h 20.6 km/h 47% 0.0 mm
15:14 11.3 °C 1.0 °C 1027.0 hPa NNE 20.1 km/h 20.1 km/h 47% 0.0 mm
15:19 11.9 °C 1.0 °C 1027.0 hPa North 12.6 km/h 21.2 km/h 47% 0.0 mm
15:24 13.7 °C 3.0 °C 1026.0 hPa North 9.7 km/h 21.2 km/h 47% 0.0 mm
15:29 11.8 °C 1.0 °C 1026.0 hPa North 12.6 km/h 25.3 km/h 47% 0.0 mm
15:30 11.8 °C 1.0 °C 1026.0 hPa North 12.6 km/h 25.3 km/h 47% 0.0 mm
15:35 13.0 °C 2.0 °C 1026.0 hPa North 9.3 km/h 25.3 km/h 47% 0.0 mm
15:40 13.6 °C 3.0 °C 1027.0 hPa North 13.7 km/h 19.5 km/h 46% 0.0 mm
15:41 14.0 °C 3.0 °C 1027.0 hPa North 12.6 km/h 17.2 km/h 46% 0.0 mm
15:46 14.0 °C 3.0 °C 1027.0 hPa North 19.5 km/h 19.5 km/h 47% 0.0 mm
15:51 13.5 °C 3.0 °C 1026.0 hPa NNW 20.9 km/h 20.9 km/h 48% 0.0 mm
15:56 12.1 °C 2.0 °C 1026.0 hPa NNW 17.2 km/h 20.9 km/h 49% 0.0 mm
16:01 11.6 °C 2.0 °C 1026.0 hPa NNW 14.3 km/h 21.6 km/h 52% 0.0 mm
16:06 11.0 °C 2.0 °C 1027.0 hPa NNW 11.6 km/h 21.6 km/h 52% 0.0 mm
16:11 10.9 °C 2.0 °C 1027.0 hPa North 10.8 km/h 20.1 km/h 53% 0.0 mm
16:16 11.1 °C 2.0 °C 1027.0 hPa NNW 11.9 km/h 17.2 km/h 53% 0.0 mm
16:21 12.3 °C 3.0 °C 1027.0 hPa WNW 10.1 km/h 17.2 km/h 53% 0.0 mm
16:26 12.4 °C 4.0 °C 1027.0 hPa North 9.3 km/h 20.1 km/h 54% 0.0 mm
16:31 11.4 °C 2.0 °C 1027.0 hPa North 15.4 km/h 20.1 km/h 53% 0.0 mm
16:36 10.9 °C 2.0 °C 1027.0 hPa NNE 9.3 km/h 24.5 km/h 52% 0.0 mm
16:41 10.9 °C 2.0 °C 1027.0 hPa North 9.7 km/h 24.5 km/h 52% 0.0 mm
16:46 12.1 °C 3.0 °C 1027.0 hPa North 7.2 km/h 12.6 km/h 52% 0.0 mm
16:51 12.4 °C 3.0 °C 1027.0 hPa North 11.6 km/h 16.6 km/h 51% 0.0 mm
16:56 12.7 °C 3.0 °C 1027.0 hPa NNE 14.0 km/h 19.5 km/h 51% 0.0 mm
17:01 13.3 °C 4.0 °C 1027.0 hPa NW 5.8 km/h 19.5 km/h 51% 0.0 mm
17:06 13.0 °C 3.0 °C 1027.0 hPa NNW 6.9 km/h 16.6 km/h 50% 0.0 mm
17:11 12.6 °C 3.0 °C 1027.0 hPa NNW 6.1 km/h 16.6 km/h 51% 0.0 mm
17:16 11.6 °C 2.0 °C 1027.0 hPa NNW 9.7 km/h 15.8 km/h 52% 0.0 mm
17:21 11.8 °C 3.0 °C 1027.0 hPa WNW 8.7 km/h 14.0 km/h 54% 0.0 mm
17:26 12.0 °C 3.0 °C 1027.0 hPa West 9.3 km/h 13.7 km/h 54% 0.0 mm
17:31 13.0 °C 4.0 °C 1027.0 hPa North 4.0 km/h 13.7 km/h 54% 0.0 mm
17:37 13.8 °C 4.0 °C 1026.0 hPa North 8.7 km/h 13.0 km/h 52% 0.0 mm
17:42 13.3 °C 4.0 °C 1026.0 hPa North 12.6 km/h 16.9 km/h 53% 0.0 mm
17:47 12.3 °C 3.0 °C 1026.0 hPa NNW 11.9 km/h 17.2 km/h 52% 0.0 mm
17:52 11.3 °C 2.0 °C 1028.0 hPa North 19.1 km/h 21.2 km/h 53% 0.0 mm
17:57 10.9 °C 2.0 °C 1028.0 hPa NNE 28.5 km/h 28.5 km/h 54% 0.0 mm
18:02 9.9 °C 2.0 °C 1028.0 hPa North 19.8 km/h 28.5 km/h 56% 0.0 mm
18:07 9.5 °C 2.0 °C 1028.0 hPa NNE 9.7 km/h 23.3 km/h 58% 0.0 mm
18:12 9.4 °C 2.0 °C 1028.0 hPa North 10.5 km/h 20.1 km/h 59% 0.0 mm
18:17 9.3 °C 2.0 °C 1028.0 hPa North 6.4 km/h 17.2 km/h 61% 0.0 mm
18:22 9.3 °C 2.0 °C 1027.0 hPa NNW 9.3 km/h 16.6 km/h 59% 0.0 mm
18:27 9.3 °C 2.0 °C 1027.0 hPa North 13.7 km/h 16.3 km/h 58% 0.0 mm
18:32 9.5 °C 3.0 °C 1027.0 hPa NNE 9.3 km/h 16.3 km/h 60% 0.0 mm
18:33 9.5 °C 3.0 °C 1027.0 hPa ENE 10.5 km/h 16.3 km/h 60% 0.0 mm
18:38 10.4 °C 3.0 °C 1027.0 hPa ESE 7.9 km/h 11.9 km/h 60% 0.0 mm
18:43 10.8 °C 3.0 °C 1027.0 hPa North 7.9 km/h 11.9 km/h 61% 0.0 mm
18:53 11.2 °C 4.0 °C 1027.0 hPa North 6.9 km/h 16.9 km/h 59% 0.0 mm
18:58 11.4 °C 3.0 °C 1027.0 hPa NNE 12.6 km/h 14.0 km/h 58% 0.0 mm
19:03 11.6 °C 4.0 °C 1027.0 hPa NW 3.5 km/h 14.0 km/h 59% 0.0 mm
19:08 11.6 °C 3.0 °C 1028.0 hPa NNE 12.6 km/h 16.3 km/h 57% 0.0 mm
19:13 11.6 °C 3.0 °C 1028.0 hPa NNW 11.9 km/h 16.3 km/h 56% 0.0 mm
19:18 11.3 °C 3.0 °C 1028.0 hPa NW 6.4 km/h 13.7 km/h 56% 0.0 mm
19:23 11.2 °C 3.0 °C 1028.0 hPa North 6.4 km/h 16.6 km/h 57% 0.0 mm
19:28 11.3 °C 3.0 °C 1028.0 hPa NNW 9.0 km/h 16.6 km/h 57% 0.0 mm
19:33 11.0 °C 3.0 °C 1028.0 hPa North 13.7 km/h 16.9 km/h 57% 0.0 mm
19:39 10.7 °C 3.0 °C 1028.0 hPa NNE 13.0 km/h 21.2 km/h 57% 0.0 mm
19:44 10.2 °C 2.0 °C 1028.0 hPa North 12.6 km/h 21.2 km/h 57% 0.0 mm
19:49 9.9 °C 2.0 °C 1028.0 hPa NNE 10.1 km/h 18.0 km/h 58% 0.0 mm
19:54 9.6 °C 2.0 °C 1028.0 hPa North 9.0 km/h 17.7 km/h 59% 0.0 mm
19:59 9.4 °C 2.0 °C 1028.0 hPa North 12.6 km/h 16.9 km/h 60% 0.0 mm
20:04 9.3 °C 2.0 °C 1028.0 hPa NNE 14.0 km/h 15.8 km/h 61% 0.0 mm
20:09 9.2 °C 3.0 °C 1028.0 hPa North 5.8 km/h 15.8 km/h 62% 0.0 mm
20:14 9.0 °C 2.0 °C 1028.0 hPa North 8.7 km/h 12.6 km/h 62% 0.0 mm
20:19 8.9 °C 3.0 °C 1028.0 hPa North 10.5 km/h 12.2 km/h 64% 0.0 mm
20:24 8.7 °C 2.0 °C 1029.0 hPa NNE 12.6 km/h 14.3 km/h 63% 0.0 mm
20:29 8.6 °C 2.0 °C 1029.0 hPa NNE 12.2 km/h 14.0 km/h 63% 0.0 mm
20:34 8.4 °C 2.0 °C 1029.0 hPa NNE 9.7 km/h 14.0 km/h 62% 0.0 mm
20:39 8.2 °C 2.0 °C 1029.0 hPa North 8.7 km/h 14.0 km/h 63% 0.0 mm
20:44 8.2 °C 2.0 °C 1029.0 hPa North 5.5 km/h 14.0 km/h 64% 0.0 mm
20:49 8.0 °C 2.0 °C 1029.0 hPa North 10.5 km/h 13.7 km/h 65% 0.0 mm
20:54 7.8 °C 2.0 °C 1029.0 hPa NE 7.6 km/h 12.2 km/h 67% 0.0 mm
20:59 7.8 °C 2.0 °C 1029.0 hPa NNE 6.9 km/h 12.6 km/h 67% 0.0 mm
21:04 7.4 °C 2.0 °C 1029.0 hPa NNE 8.7 km/h 12.6 km/h 69% 0.0 mm
21:09 7.2 °C 2.0 °C 1028.0 hPa North 9.3 km/h 13.0 km/h 69% 0.0 mm
21:14 7.1 °C 2.0 °C 1028.0 hPa NNE 9.7 km/h 13.0 km/h 69% 0.0 mm
21:19 7.2 °C 3.0 °C 1028.0 hPa NNE 9.7 km/h 10.5 km/h 71% 0.0 mm
21:25 7.1 °C 2.0 °C 1029.0 hPa North 7.9 km/h 10.5 km/h 70% 0.0 mm
21:30 6.9 °C 2.0 °C 1029.0 hPa NE 4.0 km/h 10.5 km/h 71% 0.0 mm
21:35 6.6 °C 2.0 °C 1029.0 hPa NNE 5.0 km/h 10.5 km/h 72% 0.0 mm
21:40 6.4 °C 2.0 °C 1029.0 hPa North 6.1 km/h 6.9 km/h 72% 0.0 mm
21:45 6.3 °C 2.0 °C 1029.0 hPa Calm   6.9 km/h 73% 0.0 mm
21:50 6.1 °C 2.0 °C 1029.0 hPa North 4.7 km/h 6.9 km/h 73% 0.0 mm
21:55 5.8 °C 2.0 °C 1030.0 hPa Calm   5.0 km/h 74% 0.0 mm
22:00 5.7 °C 2.0 °C 1030.0 hPa Calm   4.3 km/h 74% 0.0 mm
22:05 5.3 °C 1.0 °C 1030.0 hPa Calm   1.4 km/h 74% 0.0 mm
22:15 5.0 °C 1.0 °C 1030.0 hPa Calm   4.3 km/h 75% 0.0 mm
22:20 4.9 °C 1.0 °C 1030.0 hPa Calm   5.0 km/h 76% 0.0 mm
22:25 4.9 °C 1.0 °C 1030.0 hPa Calm   5.0 km/h 77% 0.0 mm
22:30 4.9 °C 1.0 °C 1030.0 hPa NNW 2.1 km/h 5.0 km/h 77% 0.0 mm
22:35 4.8 °C 1.0 °C 1030.0 hPa Calm   3.2 km/h 78% 0.0 mm
22:40 4.8 °C 1.0 °C 1030.0 hPa Calm   1.4 km/h 78% 0.0 mm
22:45 4.8 °C 1.0 °C 1030.0 hPa Calm   1.4 km/h 78% 0.0 mm
22:50 4.7 °C 1.0 °C 1030.0 hPa Calm   1.4 km/h 78% 0.0 mm
22:56 4.6 °C 1.0 °C 1030.0 hPa Calm     79% 0.0 mm
23:01 4.7 °C 1.0 °C 1030.0 hPa NW 1.4 km/h 5.0 km/h 79% 0.0 mm
23:06 4.7 °C 2.0 °C 1030.0 hPa Calm   5.5 km/h 80% 0.0 mm
23:11 4.8 °C 2.0 °C 1030.0 hPa NNW 4.3 km/h 5.8 km/h 81% 0.0 mm
23:16 4.8 °C 2.0 °C 1030.0 hPa NE 4.7 km/h 5.8 km/h 82% 0.0 mm
23:21 4.7 °C 2.0 °C 1030.0 hPa NNE 6.4 km/h 6.4 km/h 82% 0.0 mm
23:26 4.6 °C 2.0 °C 1030.0 hPa NNE 5.0 km/h 6.9 km/h 81% 0.0 mm
23:31 4.6 °C 2.0 °C 1030.0 hPa North 6.1 km/h 7.9 km/h 82% 0.0 mm
23:36 4.4 °C 2.0 °C 1031.0 hPa NNE 5.5 km/h 7.9 km/h 82% 0.0 mm
23:41 4.3 °C 2.0 °C 1031.0 hPa NNE 5.0 km/h 7.6 km/h 83% 0.0 mm
23:46 4.3 °C 2.0 °C 1031.0 hPa North 5.0 km/h 7.6 km/h 83% 0.0 mm
23:51 4.3 °C 2.0 °C 1030.0 hPa NNE 6.4 km/h 9.0 km/h 83% 0.0 mm
23:56 4.3 °C 2.0 °C 1030.0 hPa NE 7.9 km/h 9.0 km/h 84% 0.0 mm
Données Historique de Météo Turbie

Mise a jour : 20/06/2018 19:09:11
Généré par Cumulus 1.9.4 (1099)